createdAt,value
2019-02-15T00:00:56.472Z,102909.22
2019-02-15T00:03:26.406Z,102904.42
2019-02-15T00:05:56.279Z,102906.62
2019-02-15T00:08:26.507Z,102909.22
2019-02-15T00:10:56.729Z,102905.25
2019-02-15T00:13:26.955Z,102908.73
2019-02-15T00:15:56.895Z,102909.97
2019-02-15T00:18:40.000Z,102905.11
2019-02-15T00:21:16.703Z,102907.55
2019-02-15T00:23:46.645Z,102903.55
2019-02-15T00:26:16.906Z,102904.00
2019-02-15T00:28:48.471Z,102903.58
2019-02-15T00:31:20.860Z,102899.17
2019-02-15T00:33:50.803Z,102900.52
2019-02-15T00:36:21.840Z,102894.86
2019-02-15T00:38:51.783Z,102897.03
2019-02-15T00:41:21.736Z,102902.76
2019-02-15T00:43:51.603Z,102898.41
2019-02-15T00:46:32.319Z,102898.45
2019-02-15T00:49:03.048Z,102897.70
2019-02-15T00:51:58.293Z,102897.28
2019-02-15T00:54:36.605Z,102885.09
2019-02-15T00:57:24.691Z,102885.61
2019-02-15T01:00:14.505Z,102889.53
2019-02-15T01:02:49.611Z,102888.23
2019-02-15T01:05:53.938Z,102886.09
2019-02-15T01:08:39.471Z,102884.85
2019-02-15T01:11:23.142Z,102886.98
2019-02-15T01:13:53.083Z,102881.27
2019-02-15T01:16:23.029Z,102880.67
2019-02-15T01:18:53.096Z,102883.56
2019-02-15T01:21:23.032Z,102875.59
2019-02-15T01:23:53.057Z,102872.48
2019-02-15T01:26:34.504Z,102876.00
2019-02-15T01:29:23.364Z,102877.39
2019-02-15T01:32:11.320Z,102875.29
2019-02-15T01:34:58.914Z,102874.47
2019-02-15T01:37:47.871Z,102875.02
2019-02-15T01:40:27.571Z,102871.65
2019-02-15T01:43:14.631Z,102868.66
2019-02-15T01:45:53.953Z,102867.83
2019-02-15T01:48:23.819Z,102857.47
2019-02-15T01:50:53.693Z,102855.63
2019-02-15T01:53:23.648Z,102855.63
2019-02-15T01:55:53.458Z,102853.84
2019-02-15T01:58:23.411Z,102849.43
2019-02-15T02:00:53.359Z,102852.95
2019-02-15T02:03:23.637Z,102855.19
2019-02-15T02:05:53.511Z,102851.70
2019-02-15T02:08:25.706Z,102844.81
2019-02-15T02:10:55.648Z,102842.61
2019-02-15T02:13:25.715Z,102839.92
2019-02-15T02:15:55.911Z,102837.27
2019-02-15T02:18:25.781Z,102830.34
2019-02-15T02:20:56.061Z,102833.45
2019-02-15T02:23:26.022Z,102828.28
2019-02-15T02:25:55.893Z,102829.63
2019-02-15T02:28:26.166Z,102825.66
2019-02-15T02:30:56.331Z,102821.28
2019-02-15T02:33:26.265Z,102819.16
2019-02-15T02:35:56.212Z,102823.98
2019-02-15T02:38:26.091Z,102817.36
2019-02-15T02:40:55.963Z,102818.19
2019-02-15T02:43:25.906Z,102820.80
2019-02-15T02:45:55.844Z,102819.12
2019-02-15T02:48:25.795Z,102821.70
2019-02-15T02:50:56.050Z,102821.36
2019-02-15T02:53:25.915Z,102824.46
2019-02-15T02:55:55.880Z,102822.33
2019-02-15T02:58:25.830Z,102813.65
2019-02-15T03:00:55.712Z,102822.41
2019-02-15T03:03:25.502Z,102817.65
2019-02-15T03:05:55.480Z,102819.89
2019-02-15T03:08:25.359Z,102817.30
2019-02-15T03:10:55.639Z,102811.70
2019-02-15T03:13:25.425Z,102812.59
2019-02-15T03:15:55.406Z,102809.56
2019-02-15T03:18:25.271Z,102807.80
2019-02-15T03:20:55.215Z,102810.88
2019-02-15T03:23:25.100Z,102803.50
2019-02-15T03:25:54.907Z,102806.16
2019-02-15T03:28:24.840Z,102803.98
2019-02-15T03:30:54.788Z,102802.75
2019-02-15T03:33:25.019Z,102801.98
2019-02-15T03:35:57.317Z,102803.81
2019-02-15T03:38:36.232Z,102799.96
2019-02-15T03:41:09.598Z,102803.06
2019-02-15T03:43:39.542Z,102796.59
2019-02-15T03:46:09.754Z,102795.80
2019-02-15T03:48:40.289Z,102801.95
2019-02-15T03:51:10.906Z,102797.66
2019-02-15T03:53:41.146Z,102798.20
2019-02-15T03:56:11.450Z,102795.63
2019-02-15T03:58:43.035Z,102795.72
2019-02-15T04:01:12.921Z,102794.92
2019-02-15T04:03:42.947Z,102790.21
2019-02-15T04:06:12.988Z,102784.19
2019-02-15T04:08:42.968Z,102789.89
2019-02-15T04:11:12.974Z,102787.76
2019-02-15T04:13:42.899Z,102790.92
2019-02-15T04:16:12.789Z,102791.40
2019-02-15T04:18:42.763Z,102791.44
2019-02-15T04:21:12.673Z,102794.97
2019-02-15T04:23:42.713Z,102791.11
2019-02-15T04:26:12.940Z,102794.59
2019-02-15T04:28:42.855Z,102794.62
2019-02-15T04:31:13.536Z,102792.04
2019-02-15T04:33:43.540Z,102793.34
2019-02-15T04:36:13.854Z,102791.66
2019-02-15T04:38:44.234Z,102787.22
2019-02-15T04:41:14.105Z,102789.77
2019-02-15T04:43:44.350Z,102786.27
2019-02-15T04:46:14.526Z,102786.20
2019-02-15T04:48:45.358Z,102792.27
2019-02-15T04:51:17.262Z,102787.86
2019-02-15T04:53:47.978Z,102787.45
2019-02-15T04:56:18.691Z,102784.83
2019-02-15T04:58:49.428Z,102782.22
2019-02-15T05:01:20.061Z,102784.80
2019-02-15T05:03:50.301Z,102787.76
2019-02-15T05:06:20.166Z,102786.00
2019-02-15T05:08:50.342Z,102786.87
2019-02-15T05:11:20.345Z,102787.76
2019-02-15T05:13:51.715Z,102785.14
2019-02-15T05:16:21.703Z,102787.73
2019-02-15T05:18:51.704Z,102785.56
2019-02-15T05:21:21.979Z,102779.47
2019-02-15T05:23:52.276Z,102781.22
2019-02-15T05:26:22.212Z,102784.22
2019-02-15T05:28:52.146Z,102783.30
2019-02-15T05:31:22.479Z,102782.40
2019-02-15T05:33:52.798Z,102781.50
2019-02-15T05:36:22.777Z,102783.22
2019-02-15T05:38:53.104Z,102778.03
2019-02-15T05:41:23.338Z,102784.56
2019-02-15T05:43:53.683Z,102779.81
2019-02-15T05:46:23.919Z,102779.41
2019-02-15T05:48:53.803Z,102784.25
2019-02-15T05:51:23.805Z,102782.98
2019-02-15T05:53:54.090Z,102783.11
2019-02-15T05:56:24.088Z,102779.28
2019-02-15T05:58:54.020Z,102785.03
2019-02-15T06:01:25.478Z,102789.05
2019-02-15T06:03:55.429Z,102783.94
2019-02-15T06:06:25.338Z,102789.23
2019-02-15T06:08:55.271Z,102788.87
2019-02-15T06:11:25.254Z,102792.89
2019-02-15T06:13:55.989Z,102789.93
2019-02-15T06:16:25.894Z,102794.33
2019-02-15T06:18:56.269Z,102796.08
2019-02-15T06:21:27.113Z,102796.11
2019-02-15T06:23:57.102Z,102792.22
2019-02-15T06:26:27.012Z,102788.30
2019-02-15T06:28:56.951Z,102786.16
2019-02-15T06:31:26.930Z,102792.72
2019-02-15T06:33:59.625Z,102800.18
2019-02-15T06:36:34.109Z,102798.48
2019-02-15T06:39:05.885Z,102801.13
2019-02-15T06:41:36.094Z,102806.41
2019-02-15T06:44:06.080Z,102801.60
2019-02-15T06:46:36.025Z,102806.38
2019-02-15T06:49:05.983Z,102802.02
2019-02-15T06:51:36.403Z,102802.91
2019-02-15T06:54:06.728Z,102804.22
2019-02-15T06:56:37.098Z,102803.36
2019-02-15T06:59:25.036Z,102810.34
2019-02-15T07:02:09.139Z,102811.64
2019-02-15T07:04:44.440Z,102812.95
2019-02-15T07:07:14.423Z,102818.59
2019-02-15T07:09:44.540Z,102820.34
2019-02-15T07:12:15.867Z,102818.59
2019-02-15T07:14:48.664Z,102822.92
2019-02-15T07:17:18.622Z,102819.42
2019-02-15T07:19:49.697Z,102818.98
2019-02-15T07:22:19.724Z,102824.17
2019-02-15T07:24:49.684Z,102822.45
2019-02-15T07:27:19.764Z,102826.31
2019-02-15T07:29:49.779Z,102823.19
2019-02-15T07:32:20.421Z,102827.92
2019-02-15T07:34:51.603Z,102828.30
2019-02-15T07:37:21.531Z,102836.98
2019-02-15T07:39:51.517Z,102833.92
2019-02-15T07:42:21.421Z,102840.84
2019-02-15T07:44:51.700Z,102833.73
2019-02-15T07:47:21.776Z,102831.83
2019-02-15T07:49:52.117Z,102828.64
2019-02-15T07:52:23.175Z,102827.28
2019-02-15T07:54:53.461Z,102831.48
2019-02-15T07:57:25.253Z,102824.79
2019-02-15T07:59:55.357Z,102822.94
2019-02-15T08:02:25.374Z,102821.02
2019-02-15T08:04:55.569Z,102815.55
2019-02-15T08:07:25.756Z,102818.77
2019-02-15T08:09:56.399Z,102818.45
2019-02-15T08:12:26.494Z,102819.55
2019-02-15T08:14:56.733Z,102819.30
2019-02-15T08:17:26.855Z,102810.70
2019-02-15T08:19:56.940Z,102807.00
2019-02-15T08:22:27.164Z,102804.11
2019-02-15T08:24:58.340Z,102799.55
2019-02-15T08:27:28.658Z,102800.63
2019-02-15T08:29:59.233Z,102803.00
2019-02-15T08:32:30.154Z,102802.31
2019-02-15T08:35:00.284Z,102797.77
2019-02-15T08:37:30.321Z,102799.75
2019-02-15T08:40:00.548Z,102796.09
2019-02-15T08:42:30.652Z,102791.96
2019-02-15T08:45:01.043Z,102789.98
2019-02-15T08:47:31.157Z,102788.87
2019-02-15T08:50:01.148Z,102785.13
2019-02-15T08:52:31.359Z,102789.71
2019-02-15T08:55:01.487Z,102785.59
2019-02-15T08:57:31.301Z,102783.20
2019-02-15T09:00:01.349Z,102790.45
2019-02-15T09:02:31.841Z,102781.08
2019-02-15T09:05:02.264Z,102782.98
2019-02-15T09:07:32.586Z,102778.86
2019-02-15T09:10:05.826Z,102779.58
2019-02-15T09:12:37.563Z,102782.03
2019-02-15T09:15:11.038Z,102782.74
2019-02-15T09:17:41.185Z,102779.92
2019-02-15T09:20:11.917Z,102775.35
2019-02-15T09:22:41.910Z,102776.02
2019-02-15T09:25:12.232Z,102778.86
2019-02-15T09:28:01.266Z,102772.09
2019-02-15T09:30:32.442Z,102771.54
2019-02-15T09:33:02.456Z,102773.94
2019-02-15T09:35:32.712Z,102773.33
2019-02-15T09:38:02.623Z,102764.78
2019-02-15T09:40:32.935Z,102768.94
2019-02-15T09:43:02.904Z,102765.30
2019-02-15T09:45:33.107Z,102761.14
2019-02-15T09:48:03.103Z,102763.93
2019-02-15T09:50:33.128Z,102757.55
2019-02-15T09:53:03.095Z,102757.70
2019-02-15T09:55:33.061Z,102755.17
2019-02-15T09:58:02.977Z,102752.58
2019-02-15T10:00:32.963Z,102748.16
2019-02-15T10:03:03.596Z,102750.12
2019-02-15T10:05:33.558Z,102745.05
2019-02-15T10:08:03.551Z,102755.28
2019-02-15T10:10:33.489Z,102748.47
2019-02-15T10:13:03.424Z,102749.53
2019-02-15T10:15:33.631Z,102753.28
2019-02-15T10:18:03.629Z,102751.30
2019-02-15T10:20:33.643Z,102750.23
2019-02-15T10:23:04.566Z,102746.97
2019-02-15T10:25:34.520Z,102742.81
2019-02-15T10:28:04.630Z,102741.78
2019-02-15T10:30:34.679Z,102748.59
2019-02-15T10:33:04.618Z,102751.96
2019-02-15T10:35:34.580Z,102749.05
2019-02-15T10:38:04.518Z,102744.03
2019-02-15T10:40:34.819Z,102747.42
2019-02-15T10:43:04.754Z,102743.70
2019-02-15T10:45:34.711Z,102741.38
2019-02-15T10:48:04.889Z,102741.45
2019-02-15T10:50:34.881Z,102739.03
2019-02-15T10:53:04.805Z,102739.64
2019-02-15T10:55:34.971Z,102732.34
2019-02-15T10:58:05.293Z,102738.02
2019-02-15T11:00:35.392Z,102738.37
2019-02-15T11:03:06.912Z,102727.23
2019-02-15T11:05:37.084Z,102724.78
2019-02-15T11:08:07.198Z,102715.47
2019-02-15T11:10:37.423Z,102707.31
2019-02-15T11:13:07.649Z,102711.48
2019-02-15T11:15:37.596Z,102708.13
2019-02-15T11:18:07.785Z,102707.42
2019-02-15T11:20:39.014Z,102706.62
2019-02-15T11:23:08.896Z,102702.02
2019-02-15T11:25:38.776Z,102706.45
2019-02-15T11:28:08.753Z,102702.72
2019-02-15T11:30:38.900Z,102698.56
2019-02-15T11:33:09.115Z,102696.29
2019-02-15T11:35:38.993Z,102698.02
2019-02-15T11:38:08.955Z,102692.92
2019-02-15T11:40:38.914Z,102689.11
2019-02-15T11:43:08.859Z,102677.56
2019-02-15T11:45:38.743Z,102679.27
2019-02-15T11:48:08.719Z,102676.62
2019-02-15T11:50:38.586Z,102672.44
2019-02-15T11:53:08.545Z,102670.86
2019-02-15T11:55:38.509Z,102668.77
2019-02-15T11:58:08.474Z,102656.25
2019-02-15T12:00:38.424Z,102660.79
2019-02-15T12:03:08.586Z,102653.78
2019-02-15T12:05:38.543Z,102656.25
2019-02-15T12:08:09.575Z,102648.70
2019-02-15T12:10:39.782Z,102640.98
2019-02-15T12:13:09.997Z,102636.80
2019-02-15T12:15:39.968Z,102625.06
2019-02-15T12:18:10.277Z,102623.70
2019-02-15T12:20:40.160Z,102627.63
2019-02-15T12:23:10.374Z,102626.86
2019-02-15T12:25:40.266Z,102620.16
2019-02-15T12:28:10.200Z,102622.56
2019-02-15T12:30:40.462Z,102611.94
2019-02-15T12:33:10.336Z,102609.37
2019-02-15T12:35:40.760Z,102607.23
2019-02-15T12:38:11.029Z,102604.14
2019-02-15T12:40:40.971Z,102603.31
2019-02-15T12:43:10.943Z,102594.02
2019-02-15T12:45:40.922Z,102593.78
2019-02-15T12:48:10.858Z,102588.09
2019-02-15T12:50:40.830Z,102583.08
2019-02-15T12:53:10.766Z,102578.34
2019-02-15T12:55:41.408Z,102579.30
2019-02-15T12:58:11.630Z,102564.31
2019-02-15T13:00:41.896Z,102563.59
2019-02-15T13:03:11.699Z,102552.69
2019-02-15T13:05:41.953Z,102547.30
2019-02-15T13:08:11.956Z,102539.33
2019-02-15T13:10:43.155Z,102546.14
2019-02-15T13:13:13.118Z,102536.30
2019-02-15T13:15:44.098Z,102530.30
2019-02-15T13:18:16.998Z,102534.45
2019-02-15T13:20:46.951Z,102525.31
2019-02-15T13:23:17.286Z,102525.40
2019-02-15T13:25:47.432Z,102519.58
2019-02-15T13:28:18.640Z,102509.60
2019-02-15T13:30:48.508Z,102511.19
2019-02-15T13:33:19.451Z,102505.08
2019-02-15T13:35:49.404Z,102501.75
2019-02-15T13:38:20.626Z,102496.49
2019-02-15T13:40:50.706Z,102489.08
2019-02-15T13:43:20.669Z,102488.13
2019-02-15T13:45:50.671Z,102486.14
2019-02-15T13:48:23.294Z,102483.88
2019-02-15T13:50:54.574Z,102482.95
2019-02-15T13:53:24.476Z,102475.22
2019-02-15T13:55:54.705Z,102477.80
2019-02-15T13:58:24.667Z,102478.19
2019-02-15T14:00:54.608Z,102466.56
2019-02-15T14:03:25.138Z,102473.45
2019-02-15T14:05:55.118Z,102462.77
2019-02-15T14:08:25.295Z,102463.16
2019-02-15T14:10:55.482Z,102458.07
2019-02-15T14:13:25.590Z,102455.73
2019-02-15T14:15:55.558Z,102454.53
2019-02-15T14:18:25.468Z,102453.31
2019-02-15T14:20:55.789Z,102447.37
2019-02-15T14:23:25.681Z,102448.03
2019-02-15T14:25:55.846Z,102442.39
2019-02-15T14:28:25.751Z,102439.35
2019-02-15T14:30:55.708Z,102440.70
2019-02-15T14:33:25.583Z,102434.56
2019-02-15T14:35:55.550Z,102435.91
2019-02-15T14:38:25.512Z,102423.26
2019-02-15T14:40:55.710Z,102427.63
2019-02-15T14:43:25.523Z,102425.19
2019-02-15T14:45:55.478Z,102423.98
2019-02-15T14:48:25.468Z,102417.61
2019-02-15T14:50:55.825Z,102412.88
2019-02-15T14:53:26.329Z,102408.80
2019-02-15T14:55:56.290Z,102414.47
2019-02-15T14:58:26.434Z,102409.19
2019-02-15T15:00:56.766Z,102408.22
2019-02-15T15:03:26.715Z,102395.26
2019-02-15T15:05:57.642Z,102404.38
2019-02-15T15:08:27.596Z,102398.86
2019-02-15T15:10:57.606Z,102387.13
2019-02-15T15:13:27.560Z,102389.43
2019-02-15T15:15:57.512Z,102388.77
2019-02-15T15:18:27.469Z,102382.34
2019-02-15T15:20:57.630Z,102376.06
2019-02-15T15:23:27.957Z,102366.45
2019-02-15T15:25:58.221Z,102370.44
2019-02-15T15:28:28.174Z,102367.98
2019-02-15T15:30:58.142Z,102358.96
2019-02-15T15:33:28.321Z,102375.57
2019-02-15T15:35:58.486Z,102373.17
2019-02-15T15:38:28.366Z,102365.95
2019-02-15T15:40:58.404Z,102363.63
2019-02-15T15:43:28.759Z,102358.66
2019-02-15T15:45:58.715Z,102359.69
2019-02-15T15:48:28.598Z,102359.02
2019-02-15T15:50:59.319Z,102356.30
2019-02-15T15:53:29.701Z,102356.41
2019-02-15T15:56:00.020Z,102351.73
2019-02-15T15:58:30.212Z,102348.39
2019-02-15T16:01:00.167Z,102351.09
2019-02-15T16:03:30.216Z,102351.47
2019-02-15T16:06:02.808Z,102346.34
2019-02-15T16:08:32.627Z,102345.31
2019-02-15T16:11:02.589Z,102343.77
2019-02-15T16:13:32.563Z,102350.48
2019-02-15T16:16:02.466Z,102345.22
2019-02-15T16:18:35.030Z,102344.31
2019-02-15T16:21:05.974Z,102340.37
2019-02-15T16:23:35.576Z,102334.14
2019-02-15T16:26:05.775Z,102337.24
2019-02-15T16:28:35.695Z,102332.72
2019-02-15T16:31:05.991Z,102332.41
2019-02-15T16:33:36.183Z,102336.62
2019-02-15T16:36:07.032Z,102336.03
2019-02-15T16:38:37.268Z,102340.38
2019-02-15T16:41:08.200Z,102334.34
2019-02-15T16:43:39.154Z,102334.21
2019-02-15T16:46:09.115Z,102336.63
2019-02-15T16:48:42.061Z,102330.54
2019-02-15T16:51:10.958Z,102330.17
2019-02-15T16:53:41.270Z,102331.70
2019-02-15T16:56:11.226Z,102327.98
2019-02-15T16:58:42.182Z,102330.27
2019-02-15T17:01:12.551Z,102325.34
2019-02-15T17:03:42.814Z,102325.92
2019-02-15T17:06:13.107Z,102327.61
2019-02-15T17:08:43.384Z,102326.51
2019-02-15T17:11:13.768Z,102329.42
2019-02-15T17:13:44.049Z,102329.03
2019-02-15T17:16:14.002Z,102330.83
2019-02-15T17:18:51.357Z,102330.45
2019-02-15T17:21:16.201Z,102330.81
2019-02-15T17:23:46.195Z,102334.13
2019-02-15T17:26:16.153Z,102335.75
2019-02-15T17:28:46.126Z,102333.66
2019-02-15T17:31:17.365Z,102333.84
2019-02-15T17:33:47.317Z,102334.02
2019-02-15T17:36:18.924Z,102333.05
2019-02-15T17:38:48.889Z,102338.25
2019-02-15T17:41:18.752Z,102333.61
2019-02-15T17:43:48.719Z,102337.38
2019-02-15T17:46:18.659Z,102331.11
2019-02-15T17:48:48.938Z,102330.13
2019-02-15T17:51:18.877Z,102327.41
2019-02-15T17:53:48.851Z,102327.70
2019-02-15T17:56:21.623Z,102320.91
2019-02-15T17:58:51.520Z,102323.03
2019-02-15T18:01:22.168Z,102329.64
2019-02-15T18:03:52.139Z,102322.70
2019-02-15T18:06:22.079Z,102324.59
2019-02-15T18:08:52.309Z,102322.12
2019-02-15T18:11:22.179Z,102319.56
2019-02-15T18:13:52.473Z,102322.29
2019-02-15T18:16:22.398Z,102321.35
2019-02-15T18:18:53.892Z,102315.22
2019-02-15T18:21:24.141Z,102322.77
2019-02-15T18:23:54.100Z,102325.49
2019-02-15T18:26:23.972Z,102327.48
2019-02-15T18:28:53.857Z,102325.02
2019-02-15T18:31:23.735Z,102319.81
2019-02-15T18:33:54.214Z,102322.55
2019-02-15T18:36:24.560Z,102318.02
2019-02-15T18:38:56.843Z,102320.28
2019-02-15T18:41:26.995Z,102311.89
2019-02-15T18:43:56.896Z,102318.02
2019-02-15T18:46:26.847Z,102320.20
2019-02-15T18:48:56.723Z,102313.21
2019-02-15T18:51:26.670Z,102312.45
2019-02-15T18:53:56.650Z,102316.11
2019-02-15T18:56:26.654Z,102315.26
2019-02-15T18:58:57.814Z,102310.53
2019-02-15T19:01:27.740Z,102311.08
2019-02-15T19:03:57.626Z,102312.99
2019-02-15T19:06:29.468Z,102321.09
2019-02-15T19:08:59.407Z,102320.96
2019-02-15T19:11:29.472Z,102327.94
2019-02-15T19:14:01.784Z,102318.09
2019-02-15T19:16:31.759Z,102323.92
2019-02-15T19:19:01.794Z,102318.05
2019-02-15T19:21:31.846Z,102311.81
2019-02-15T19:24:01.830Z,102307.41
2019-02-15T19:26:34.300Z,102307.00
2019-02-15T19:29:04.254Z,102310.98
2019-02-15T19:31:34.638Z,102309.18
2019-02-15T19:34:04.963Z,102313.38
2019-02-15T19:36:37.336Z,102307.61
2019-02-15T19:39:07.482Z,102309.94
2019-02-15T19:41:37.613Z,102309.63
2019-02-15T19:44:07.622Z,102303.20
2019-02-15T19:46:38.622Z,102308.02
2019-02-15T19:49:08.565Z,102295.83
2019-02-15T19:51:38.573Z,102299.41
2019-02-15T19:54:08.787Z,102312.20
2019-02-15T19:56:40.217Z,102305.97
2019-02-15T19:59:10.215Z,102306.12
2019-02-15T20:01:40.554Z,102299.30
2019-02-15T20:04:10.923Z,102303.80
2019-02-15T20:06:40.811Z,102298.61
2019-02-15T20:09:10.993Z,102296.27
2019-02-15T20:11:41.670Z,102297.44
2019-02-15T20:14:11.640Z,102298.75
2019-02-15T20:16:42.714Z,102289.91
2019-02-15T20:19:12.967Z,102288.20
2019-02-15T20:21:44.553Z,102280.75
2019-02-15T20:24:14.518Z,102291.23
2019-02-15T20:26:44.472Z,102289.98
2019-02-15T20:29:14.430Z,102292.32
2019-02-15T20:31:44.382Z,102295.97
2019-02-15T20:34:14.291Z,102289.38
2019-02-15T20:36:44.249Z,102290.96
2019-02-15T20:39:14.124Z,102294.92
2019-02-15T20:41:44.252Z,102298.10
2019-02-15T20:44:14.271Z,102290.58
2019-02-15T20:46:44.594Z,102294.53
2019-02-15T20:49:14.527Z,102289.56
2019-02-15T20:51:44.413Z,102287.20
2019-02-15T20:54:14.315Z,102280.61
2019-02-15T20:56:44.240Z,102279.20
2019-02-15T20:59:15.661Z,102269.12
2019-02-15T21:01:45.576Z,102276.65
2019-02-15T21:04:15.531Z,102276.30
2019-02-15T21:06:45.483Z,102281.19
2019-02-15T21:09:15.458Z,102282.20
2019-02-15T21:11:45.420Z,102279.64
2019-02-15T21:14:15.363Z,102281.12
2019-02-15T21:16:45.237Z,102276.69
2019-02-15T21:19:15.494Z,102278.09
2019-02-15T21:21:47.088Z,102282.05
2019-02-15T21:24:17.012Z,102282.52
2019-02-15T21:26:46.978Z,102279.80
2019-02-15T21:29:16.944Z,102290.50
2019-02-15T21:31:47.056Z,102285.39
2019-02-15T21:34:17.302Z,102280.69
2019-02-15T21:36:47.475Z,102279.91
2019-02-15T21:39:17.800Z,102283.06
2019-02-15T21:41:47.764Z,102283.69
2019-02-15T21:44:18.330Z,102286.32
2019-02-15T21:46:48.874Z,102290.82
2019-02-15T21:49:19.168Z,102293.14
2019-02-15T21:51:49.128Z,102292.56
2019-02-15T21:54:22.350Z,102294.58
2019-02-15T21:56:52.308Z,102293.09
2019-02-15T21:59:22.536Z,102285.91
2019-02-15T22:01:52.763Z,102283.51
2019-02-15T22:04:25.692Z,102275.91
2019-02-15T22:06:55.970Z,102274.45
2019-02-15T22:09:26.175Z,102273.75
2019-02-15T22:11:56.399Z,102279.25
2019-02-15T22:14:27.967Z,102272.38
2019-02-15T22:16:57.845Z,102276.34
2019-02-15T22:19:28.069Z,102276.09
2019-02-15T22:21:58.024Z,102274.53
2019-02-15T22:24:27.959Z,102275.61
2019-02-15T22:26:58.177Z,102276.33
2019-02-15T22:29:30.234Z,102275.70
2019-02-15T22:32:00.122Z,102269.41
2019-02-15T22:34:31.877Z,102271.51
2019-02-15T22:37:05.189Z,102267.78
2019-02-15T22:39:35.069Z,102260.41
2019-02-15T22:42:05.055Z,102269.48
2019-02-15T22:44:35.050Z,102265.92
2019-02-15T22:47:05.000Z,102273.83
2019-02-15T22:49:43.397Z,102267.31
2019-02-15T22:52:08.714Z,102262.66
2019-02-15T22:54:38.901Z,102262.66
2019-02-15T22:57:08.772Z,102264.22
2019-02-15T22:59:38.718Z,102264.83
2019-02-15T23:02:10.487Z,102254.45
2019-02-15T23:04:40.811Z,102257.22
2019-02-15T23:07:10.689Z,102262.73
2019-02-15T23:09:41.697Z,102258.28
2019-02-15T23:12:11.910Z,102256.72
2019-02-15T23:14:41.782Z,102252.95
2019-02-15T23:17:11.778Z,102251.38
2019-02-15T23:19:41.704Z,102253.83
2019-02-15T23:22:11.610Z,102249.23
2019-02-15T23:24:41.564Z,102252.18
2019-02-15T23:27:30.988Z,102248.44
2019-02-15T23:30:01.564Z,102245.66
2019-02-15T23:32:31.353Z,102242.64
2019-02-15T23:35:01.210Z,102250.13
2019-02-15T23:37:37.779Z,102244.34
2019-02-15T23:40:02.758Z,102239.83
2019-02-15T23:42:32.620Z,102240.16
2019-02-15T23:45:03.093Z,102235.68
2019-02-15T23:47:33.308Z,102236.22
2019-02-15T23:50:03.267Z,102237.45
2019-02-15T23:52:33.203Z,102237.45
2019-02-15T23:55:06.191Z,102230.95
2019-02-15T23:57:36.106Z,102227.14
